createdAt,value
2022-11-03T00:01:52.880Z,18.67
2022-11-03T00:04:23.559Z,18.67
2022-11-03T00:06:54.468Z,18.66
2022-11-03T00:09:26.961Z,18.66
2022-11-03T00:11:56.958Z,18.66
2022-11-03T00:14:25.519Z,18.65
2022-11-03T00:16:54.190Z,18.65
2022-11-03T00:19:22.709Z,18.64
2022-11-03T00:21:54.003Z,18.65
2022-11-03T00:24:22.507Z,18.65
2022-11-03T00:26:51.269Z,18.66
2022-11-03T00:29:21.565Z,18.67
2022-11-03T00:31:49.944Z,18.68
2022-11-03T00:34:18.365Z,18.66
2022-11-03T00:36:46.763Z,18.65
2022-11-03T00:39:15.213Z,18.64
2022-11-03T00:41:43.661Z,18.63
2022-11-03T00:44:13.423Z,18.63
2022-11-03T00:46:43.267Z,18.61
2022-11-03T00:49:11.663Z,18.62
2022-11-03T00:51:40.184Z,18.62
2022-11-03T00:54:08.984Z,18.61
2022-11-03T00:56:39.999Z,18.62
2022-11-03T00:59:10.703Z,18.62
2022-11-03T01:01:47.331Z,18.63
2022-11-03T01:04:34.659Z,18.61
2022-11-03T01:07:05.683Z,18.59
2022-11-03T01:09:39.101Z,18.60
2022-11-03T01:12:10.942Z,18.61
2022-11-03T01:14:42.268Z,18.62
2022-11-03T01:17:16.305Z,18.63
2022-11-03T01:19:44.794Z,18.61
2022-11-03T01:22:14.537Z,18.62
2022-11-03T01:24:44.275Z,18.59
2022-11-03T01:27:16.539Z,18.58
2022-11-03T01:29:45.599Z,18.58
2022-11-03T01:32:15.586Z,18.56
2022-11-03T01:34:44.000Z,18.54
2022-11-03T01:37:12.380Z,18.53
2022-11-03T01:39:40.745Z,18.54
2022-11-03T01:42:13.033Z,18.56
2022-11-03T01:44:44.882Z,18.56
2022-11-03T01:47:24.174Z,18.56
2022-11-03T01:49:57.761Z,18.55
2022-11-03T01:52:30.601Z,18.55
2022-11-03T01:55:03.563Z,18.55
2022-11-03T01:57:39.893Z,18.54
2022-11-03T02:00:11.022Z,18.52
2022-11-03T02:02:45.250Z,18.53
2022-11-03T02:05:15.389Z,18.53
2022-11-03T02:07:51.375Z,18.53
2022-11-03T02:10:21.333Z,18.51
2022-11-03T02:12:50.099Z,18.51
2022-11-03T02:15:21.472Z,18.50
2022-11-03T02:17:54.126Z,18.50
2022-11-03T02:20:26.203Z,18.50
2022-11-03T02:23:22.567Z,18.49
2022-11-03T02:25:54.608Z,18.49
2022-11-03T02:28:25.536Z,18.49
2022-11-03T02:31:05.117Z,18.50
2022-11-03T02:33:43.858Z,18.49
2022-11-03T02:36:18.627Z,18.49
2022-11-03T02:38:53.827Z,18.49
2022-11-03T02:41:25.352Z,18.50
2022-11-03T02:43:56.429Z,18.49
2022-11-03T02:46:27.314Z,18.50
2022-11-03T02:48:57.193Z,18.49
2022-11-03T02:51:25.814Z,18.48
2022-11-03T02:54:05.052Z,18.50
2022-11-03T02:56:40.557Z,18.50
2022-11-03T02:59:13.616Z,18.48
2022-11-03T03:01:50.955Z,18.47
2022-11-03T03:04:25.304Z,18.46
2022-11-03T03:06:59.387Z,18.46
2022-11-03T03:09:34.083Z,18.46
2022-11-03T03:12:06.425Z,18.45
2022-11-03T03:14:39.482Z,18.45
2022-11-03T03:17:14.223Z,18.44
2022-11-03T03:19:51.727Z,18.44
2022-11-03T03:22:30.003Z,18.42
2022-11-03T03:25:05.030Z,18.42
2022-11-03T03:27:36.069Z,18.41
2022-11-03T03:30:07.590Z,18.41
2022-11-03T03:32:40.651Z,18.42
2022-11-03T03:35:16.985Z,18.42
2022-11-03T03:37:50.060Z,18.39
2022-11-03T03:40:25.883Z,18.39
2022-11-03T03:42:55.819Z,18.39
2022-11-03T03:45:27.062Z,18.38
2022-11-03T03:47:57.642Z,18.39
2022-11-03T03:50:28.995Z,18.40
2022-11-03T03:53:01.690Z,18.39
2022-11-03T03:55:42.831Z,18.39
2022-11-03T03:58:15.431Z,18.37
2022-11-03T04:00:44.299Z,18.35
2022-11-03T04:03:18.651Z,18.35
2022-11-03T04:05:47.631Z,18.34
2022-11-03T04:08:17.482Z,18.34
2022-11-03T04:11:07.511Z,18.36
2022-11-03T04:13:54.745Z,18.34
2022-11-03T04:16:40.659Z,18.32
2022-11-03T04:19:30.146Z,18.31
2022-11-03T04:22:16.206Z,18.30
2022-11-03T04:24:45.108Z,18.28
2022-11-03T04:27:41.007Z,18.28
2022-11-03T04:30:17.649Z,18.29
2022-11-03T04:32:48.545Z,18.28
2022-11-03T04:35:19.250Z,18.27
2022-11-03T04:37:53.102Z,18.27
2022-11-03T04:40:21.866Z,18.27
2022-11-03T04:42:50.444Z,18.28
2022-11-03T04:45:25.831Z,18.30
2022-11-03T04:47:54.993Z,18.27
2022-11-03T04:50:25.475Z,18.29
2022-11-03T04:52:58.347Z,18.30
2022-11-03T04:55:28.138Z,18.29
2022-11-03T04:57:59.802Z,18.31
2022-11-03T05:00:29.632Z,18.30
2022-11-03T05:02:58.846Z,18.29
2022-11-03T05:05:28.225Z,18.29
2022-11-03T05:08:00.188Z,18.31
2022-11-03T05:10:30.636Z,18.32
2022-11-03T05:13:01.595Z,18.34
2022-11-03T05:15:38.351Z,18.35
2022-11-03T05:18:19.860Z,18.34
2022-11-03T05:20:53.421Z,18.33
2022-11-03T05:23:23.023Z,18.32
2022-11-03T05:25:54.384Z,18.32
2022-11-03T05:28:29.213Z,18.32
2022-11-03T05:30:59.008Z,18.33
2022-11-03T05:33:30.491Z,18.34
2022-11-03T05:36:03.191Z,18.34
2022-11-03T05:38:34.407Z,18.34
2022-11-03T05:41:03.123Z,18.34
2022-11-03T05:43:31.789Z,18.33
2022-11-03T05:46:04.349Z,18.34
2022-11-03T05:48:36.525Z,18.33
2022-11-03T05:51:19.685Z,18.33
2022-11-03T05:53:52.784Z,18.32
2022-11-03T05:56:24.047Z,18.32
2022-11-03T05:58:53.748Z,18.33
2022-11-03T06:01:30.531Z,18.33
2022-11-03T06:04:01.734Z,18.34
2022-11-03T06:06:34.901Z,18.35
2022-11-03T06:09:12.055Z,18.35
2022-11-03T06:11:41.673Z,18.35
2022-11-03T06:14:23.964Z,18.37
2022-11-03T06:16:57.930Z,18.38
2022-11-03T06:19:31.282Z,18.38
2022-11-03T06:22:05.620Z,18.37
2022-11-03T06:24:35.940Z,18.35
2022-11-03T06:27:04.685Z,18.34
2022-11-03T06:29:35.582Z,18.35
2022-11-03T06:32:06.793Z,18.34
2022-11-03T06:34:48.435Z,18.35
2022-11-03T06:37:23.486Z,18.34
2022-11-03T06:39:59.272Z,18.34
2022-11-03T06:42:31.965Z,18.34
2022-11-03T06:45:02.650Z,18.36
2022-11-03T06:47:33.523Z,18.34
2022-11-03T06:50:04.625Z,18.35
2022-11-03T06:52:36.686Z,18.35
2022-11-03T06:55:26.721Z,18.33
2022-11-03T06:58:00.250Z,18.33
2022-11-03T07:00:36.201Z,18.33
2022-11-03T07:03:20.421Z,18.31
2022-11-03T07:05:49.185Z,18.31
2022-11-03T07:08:26.629Z,18.34
2022-11-03T07:11:02.799Z,18.34
2022-11-03T07:13:34.547Z,18.34
2022-11-03T07:16:03.810Z,18.36
2022-11-03T07:18:40.781Z,18.39
2022-11-03T07:21:35.550Z,18.39
2022-11-03T07:24:15.829Z,18.40
2022-11-03T07:26:44.152Z,18.39
2022-11-03T07:29:20.848Z,18.41
2022-11-03T07:31:49.528Z,18.43
2022-11-03T07:34:23.466Z,18.45
2022-11-03T07:36:56.019Z,18.45
2022-11-03T07:39:25.520Z,18.45
2022-11-03T07:41:54.361Z,18.46
2022-11-03T07:44:22.929Z,18.46
2022-11-03T07:46:52.189Z,18.48
2022-11-03T07:49:30.642Z,18.50
2022-11-03T07:52:01.025Z,18.50
2022-11-03T07:54:35.341Z,18.51
2022-11-03T07:57:13.677Z,18.51
2022-11-03T07:59:45.474Z,18.52
2022-11-03T08:02:27.828Z,18.51
2022-11-03T08:04:58.565Z,18.51
2022-11-03T08:07:27.924Z,18.53
2022-11-03T08:09:56.841Z,18.54
2022-11-03T08:12:25.610Z,18.55
2022-11-03T08:14:54.082Z,18.57
2022-11-03T08:17:22.660Z,18.59
2022-11-03T08:19:51.233Z,18.61
2022-11-03T08:22:21.080Z,18.63
2022-11-03T08:24:49.968Z,18.65
2022-11-03T08:27:19.439Z,18.67
2022-11-03T08:29:47.812Z,18.69
2022-11-03T08:32:16.238Z,18.71
2022-11-03T08:34:44.834Z,18.73
2022-11-03T08:37:13.345Z,18.74
2022-11-03T08:39:43.214Z,18.76
2022-11-03T08:42:11.634Z,18.77
2022-11-03T08:44:40.271Z,18.78
2022-11-03T08:47:08.632Z,18.80
2022-11-03T08:49:37.171Z,18.80
2022-11-03T08:52:06.140Z,18.81
2022-11-03T08:54:34.509Z,18.83
2022-11-03T08:57:05.020Z,18.85
2022-11-03T08:59:34.425Z,18.85
2022-11-03T09:02:02.842Z,18.85
2022-11-03T09:04:31.386Z,18.86
2022-11-03T09:06:59.781Z,18.88
2022-11-03T09:12:20.678Z,18.91
2022-11-03T09:14:49.799Z,18.94
2022-11-03T09:17:18.233Z,18.97
2022-11-03T09:19:46.575Z,19.00
2022-11-03T09:22:15.066Z,19.05
2022-11-03T09:24:44.053Z,19.05
2022-11-03T09:27:12.581Z,19.07
2022-11-03T09:30:10.982Z,19.13
2022-11-03T09:32:31.262Z,19.16
2022-11-03T09:34:59.683Z,19.21
2022-11-03T09:37:28.593Z,19.24
2022-11-03T09:39:57.647Z,19.27
2022-11-03T09:42:26.872Z,19.28
2022-11-03T09:44:57.742Z,19.32
2022-11-03T09:47:33.347Z,19.34
2022-11-03T09:50:02.183Z,19.37
2022-11-03T09:52:30.785Z,19.37
2022-11-03T09:54:59.788Z,19.40
2022-11-03T09:57:29.541Z,19.41
2022-11-03T09:59:59.531Z,19.43
2022-11-03T10:02:31.033Z,19.45
2022-11-03T10:05:03.364Z,19.45
2022-11-03T10:07:36.286Z,19.47
2022-11-03T10:10:06.255Z,19.48
2022-11-03T10:12:38.814Z,19.52
2022-11-03T10:15:16.716Z,19.54
2022-11-03T10:17:46.535Z,19.55
2022-11-03T10:20:18.846Z,19.57
2022-11-03T10:22:49.141Z,19.59
2022-11-03T10:25:29.445Z,19.61
2022-11-03T10:28:19.933Z,19.62
2022-11-03T10:31:14.981Z,19.63
2022-11-03T10:33:53.615Z,19.63
2022-11-03T10:36:27.376Z,19.66
2022-11-03T10:38:56.243Z,19.65
2022-11-03T10:41:26.677Z,19.69
2022-11-03T10:44:08.159Z,19.71
2022-11-03T10:46:50.777Z,19.73
2022-11-03T10:49:21.505Z,19.74
2022-11-03T10:51:54.139Z,19.76
2022-11-03T10:54:24.969Z,19.75
2022-11-03T10:56:54.270Z,19.76
2022-11-03T10:59:31.604Z,19.78
2022-11-03T11:02:02.806Z,19.80
2022-11-03T11:04:34.323Z,19.82
2022-11-03T11:07:02.947Z,19.82
2022-11-03T11:09:31.484Z,19.84
2022-11-03T11:12:06.299Z,19.86
2022-11-03T11:14:40.185Z,19.86
2022-11-03T11:17:50.505Z,19.86
2022-11-03T11:20:32.240Z,19.87
2022-11-03T11:23:52.955Z,19.86
2022-11-03T11:26:42.567Z,19.86
2022-11-03T11:29:44.952Z,19.87
2022-11-03T11:33:00.285Z,19.88
2022-11-03T11:36:08.847Z,19.89
2022-11-03T11:38:59.040Z,19.92
2022-11-03T11:42:09.844Z,19.94
2022-11-03T11:44:54.603Z,19.97
2022-11-03T11:47:51.266Z,20.02
2022-11-03T11:50:36.154Z,20.06
2022-11-03T11:53:26.235Z,20.10
2022-11-03T11:55:58.557Z,20.17
2022-11-03T11:58:36.908Z,20.21
2022-11-03T12:01:09.024Z,20.25
2022-11-03T12:03:43.053Z,20.31
2022-11-03T12:06:14.559Z,20.34
2022-11-03T12:08:43.747Z,20.37
2022-11-03T12:11:14.396Z,20.41
2022-11-03T12:13:49.092Z,20.43
2022-11-03T12:16:35.303Z,20.47
2022-11-03T12:19:40.550Z,20.46
2022-11-03T12:22:12.505Z,20.46
2022-11-03T12:24:51.519Z,20.50
2022-11-03T12:27:43.102Z,20.49
2022-11-03T12:30:18.806Z,20.50
2022-11-03T12:32:48.142Z,20.49
2022-11-03T12:35:17.149Z,20.50
2022-11-03T12:37:46.965Z,20.51
2022-11-03T12:40:16.059Z,20.52
2022-11-03T12:42:44.467Z,20.52
2022-11-03T12:45:14.358Z,20.53
2022-11-03T12:47:42.734Z,20.54
2022-11-03T12:50:13.332Z,20.56
2022-11-03T12:52:41.758Z,20.58
2022-11-03T12:55:12.477Z,20.60
2022-11-03T12:57:40.899Z,20.64
2022-11-03T13:00:12.315Z,20.66
2022-11-03T13:02:40.964Z,20.68
2022-11-03T13:05:10.686Z,20.70
2022-11-03T13:07:39.738Z,20.72
2022-11-03T13:10:09.515Z,20.76
2022-11-03T13:12:41.443Z,20.78
2022-11-03T13:15:13.472Z,20.76
2022-11-03T13:20:30.954Z,20.75
2022-11-03T13:22:59.562Z,20.75
2022-11-03T13:25:28.935Z,20.75
2022-11-03T13:27:58.844Z,20.72
2022-11-03T13:30:28.829Z,20.70
2022-11-03T13:32:57.800Z,20.70
2022-11-03T13:35:26.269Z,20.68
2022-11-03T13:37:54.708Z,20.67
2022-11-03T13:43:13.135Z,20.62
2022-11-03T13:45:41.838Z,20.60
2022-11-03T13:51:00.203Z,20.58
2022-11-03T13:56:21.774Z,20.54
2022-11-03T14:01:41.182Z,20.50
2022-11-03T14:06:59.337Z,20.48
2022-11-03T14:09:27.805Z,20.46
2022-11-03T14:12:13.880Z,20.47
2022-11-03T14:14:44.096Z,20.42
2022-11-03T14:17:12.539Z,20.42
2022-11-03T14:19:45.024Z,20.41
2022-11-03T14:22:17.387Z,20.41
2022-11-03T14:24:46.049Z,20.40
2022-11-03T14:27:15.900Z,20.39
2022-11-03T14:29:49.518Z,20.38
2022-11-03T14:32:19.556Z,20.37
2022-11-03T14:34:48.338Z,20.36
2022-11-03T14:37:17.380Z,20.37
2022-11-03T14:39:45.856Z,20.37
2022-11-03T14:42:15.961Z,20.36
2022-11-03T14:44:47.643Z,20.36
2022-11-03T14:47:18.798Z,20.35
2022-11-03T14:49:47.471Z,20.35
2022-11-03T14:52:17.435Z,20.35
2022-11-03T14:54:45.901Z,20.34
2022-11-03T14:57:14.285Z,20.34
2022-11-03T14:59:42.819Z,20.34
2022-11-03T15:02:12.882Z,20.34
2022-11-03T15:04:42.033Z,20.34
2022-11-03T15:07:10.479Z,20.32
2022-11-03T15:09:38.912Z,20.31
2022-11-03T15:12:07.720Z,20.31
2022-11-03T15:14:36.365Z,20.30
2022-11-03T15:17:04.813Z,20.29
2022-11-03T15:19:34.604Z,20.29
2022-11-03T15:22:02.925Z,20.28
2022-11-03T15:27:19.805Z,20.25
2022-11-03T15:29:48.615Z,20.25
2022-11-03T15:32:17.708Z,20.25
2022-11-03T15:34:47.489Z,20.25
2022-11-03T15:37:16.713Z,20.23
2022-11-03T15:39:45.570Z,20.21
2022-11-03T15:42:13.967Z,20.19
2022-11-03T15:44:42.431Z,20.17
2022-11-03T15:47:10.844Z,20.15
2022-11-03T15:49:39.174Z,20.13
2022-11-03T15:52:10.046Z,20.10
2022-11-03T15:54:42.463Z,20.08
2022-11-03T15:57:11.453Z,20.06
2022-11-03T15:59:40.066Z,20.04
2022-11-03T16:02:27.753Z,20.03
2022-11-03T16:04:57.422Z,20.00
2022-11-03T16:07:27.324Z,20.01
2022-11-03T16:09:56.397Z,19.99
2022-11-03T16:12:25.599Z,19.98
2022-11-03T16:14:54.599Z,19.95
2022-11-03T16:17:23.375Z,19.91
2022-11-03T16:19:52.116Z,19.89
2022-11-03T16:22:22.469Z,19.86
2022-11-03T16:24:52.457Z,19.84
2022-11-03T16:27:21.054Z,19.80
2022-11-03T16:29:49.773Z,19.77
2022-11-03T16:32:18.585Z,19.76
2022-11-03T16:34:48.523Z,19.71
2022-11-03T16:37:17.770Z,19.69
2022-11-03T16:39:46.188Z,19.66
2022-11-03T16:42:16.052Z,19.63
2022-11-03T16:44:44.512Z,19.61
2022-11-03T16:47:13.236Z,19.58
2022-11-03T16:49:41.839Z,19.56
2022-11-03T16:52:10.881Z,19.56
2022-11-03T16:54:39.437Z,19.53
2022-11-03T16:57:08.313Z,19.51
2022-11-03T16:59:39.423Z,19.47
2022-11-03T17:02:12.183Z,19.47
2022-11-03T17:04:44.807Z,19.44
2022-11-03T17:07:13.374Z,19.43
2022-11-03T17:09:41.758Z,19.43
2022-11-03T17:12:10.053Z,19.41
2022-11-03T17:14:40.526Z,19.42
2022-11-03T17:17:09.310Z,19.40
2022-11-03T17:19:38.197Z,19.41
2022-11-03T17:22:07.238Z,19.40
2022-11-03T17:24:36.094Z,19.38
2022-11-03T17:27:07.866Z,19.38
2022-11-03T17:29:41.937Z,19.37
2022-11-03T17:32:15.156Z,19.33
2022-11-03T17:34:43.562Z,19.31
2022-11-03T17:37:12.214Z,19.31
2022-11-03T17:39:41.410Z,19.31
2022-11-03T17:42:17.877Z,19.35
2022-11-03T17:44:49.614Z,19.32
2022-11-03T17:47:19.772Z,19.32
2022-11-03T17:49:48.941Z,19.31
2022-11-03T17:52:25.097Z,19.32
2022-11-03T17:54:59.235Z,19.32
2022-11-03T17:57:28.658Z,19.30
2022-11-03T18:00:01.293Z,19.31
2022-11-03T18:02:33.073Z,19.31
2022-11-03T18:05:21.318Z,19.31
2022-11-03T18:07:51.221Z,19.29
2022-11-03T18:10:19.701Z,19.27
2022-11-03T18:13:08.632Z,19.28
2022-11-03T18:15:39.371Z,19.26
2022-11-03T18:18:15.138Z,19.26
2022-11-03T18:20:53.394Z,19.25
2022-11-03T18:23:25.979Z,19.24
2022-11-03T18:25:55.475Z,19.23
2022-11-03T18:28:24.037Z,19.24
2022-11-03T18:30:56.678Z,19.24
2022-11-03T18:33:28.626Z,19.24
2022-11-03T18:35:58.972Z,19.25
2022-11-03T18:38:27.960Z,19.22
2022-11-03T18:40:56.836Z,19.22
2022-11-03T18:43:26.470Z,19.23
2022-11-03T18:45:56.303Z,19.24
2022-11-03T18:48:24.746Z,19.24
2022-11-03T18:50:55.978Z,19.24
2022-11-03T18:53:26.946Z,19.24
2022-11-03T18:55:59.705Z,19.24
2022-11-03T18:58:28.798Z,19.23
2022-11-03T19:00:59.153Z,19.23
2022-11-03T19:03:28.648Z,19.23
2022-11-03T19:05:58.135Z,19.22
2022-11-03T19:08:30.719Z,19.23
2022-11-03T19:11:03.765Z,19.23
2022-11-03T19:13:37.633Z,19.25
2022-11-03T19:16:15.961Z,19.24
2022-11-03T19:18:45.904Z,19.24
2022-11-03T19:21:16.556Z,19.24
2022-11-03T19:23:47.976Z,19.24
2022-11-03T19:26:23.481Z,19.24
2022-11-03T19:28:57.368Z,19.25
2022-11-03T19:31:33.514Z,19.24
2022-11-03T19:34:03.101Z,19.26
2022-11-03T19:36:32.344Z,19.26
2022-11-03T19:39:01.602Z,19.26
2022-11-03T19:41:47.996Z,19.24
2022-11-03T19:44:16.660Z,19.24
2022-11-03T19:46:46.436Z,19.23
2022-11-03T19:49:15.728Z,19.21
2022-11-03T19:51:44.524Z,19.19
2022-11-03T19:54:18.205Z,19.17
2022-11-03T19:56:47.456Z,19.16
2022-11-03T19:59:17.718Z,19.16
2022-11-03T20:01:47.689Z,19.15
2022-11-03T20:04:16.156Z,19.15
2022-11-03T20:06:44.714Z,19.16
2022-11-03T20:09:18.388Z,19.16
2022-11-03T20:11:47.236Z,19.14
2022-11-03T20:14:20.780Z,19.17
2022-11-03T20:16:50.594Z,19.15
2022-11-03T20:19:19.339Z,19.15
2022-11-03T20:21:47.979Z,19.16
2022-11-03T20:24:17.598Z,19.15
2022-11-03T20:26:46.407Z,19.15
2022-11-03T20:29:16.854Z,19.15
2022-11-03T20:31:46.302Z,19.16
2022-11-03T20:34:17.108Z,19.15
2022-11-03T20:36:47.990Z,19.14
2022-11-03T20:39:19.053Z,19.14
2022-11-03T20:41:51.491Z,19.15
2022-11-03T20:44:20.150Z,19.11
2022-11-03T20:46:48.749Z,19.12
2022-11-03T20:49:18.643Z,19.12
2022-11-03T20:51:48.121Z,19.12
2022-11-03T20:54:18.799Z,19.11
2022-11-03T20:56:48.620Z,19.12
2022-11-03T20:59:21.248Z,19.11
2022-11-03T21:01:50.283Z,19.12
2022-11-03T21:04:22.015Z,19.12
2022-11-03T21:06:51.145Z,19.11
2022-11-03T21:09:20.438Z,19.10
2022-11-03T21:11:49.759Z,19.09
2022-11-03T21:14:23.909Z,19.09
2022-11-03T21:17:10.053Z,19.07
2022-11-03T21:19:57.734Z,19.06
2022-11-03T21:22:51.333Z,19.07
2022-11-03T21:25:23.174Z,19.05
2022-11-03T21:27:53.815Z,19.07
2022-11-03T21:30:23.159Z,19.08
2022-11-03T21:32:51.850Z,19.09
2022-11-03T21:35:23.659Z,19.08
2022-11-03T21:37:52.259Z,19.06
2022-11-03T21:40:21.070Z,19.04
2022-11-03T21:43:07.256Z,19.03
2022-11-03T21:45:35.977Z,19.02
2022-11-03T21:48:23.021Z,19.02
2022-11-03T21:50:53.654Z,19.01
2022-11-03T21:53:22.337Z,19.01
2022-11-03T21:55:51.215Z,19.03
2022-11-03T21:58:19.561Z,19.03
2022-11-03T22:00:48.296Z,19.04
2022-11-03T22:03:17.467Z,19.05
2022-11-03T22:05:46.005Z,19.04
2022-11-03T22:08:15.979Z,19.04
2022-11-03T22:10:44.357Z,19.04
2022-11-03T22:13:13.006Z,19.04
2022-11-03T22:15:59.138Z,19.05
2022-11-03T22:18:27.960Z,19.02
2022-11-03T22:21:16.546Z,19.05
2022-11-03T22:24:03.939Z,19.04
2022-11-03T22:26:49.872Z,19.04
2022-11-03T22:29:35.916Z,19.03
2022-11-03T22:32:06.049Z,19.00
2022-11-03T22:34:52.240Z,19.01
2022-11-03T22:37:20.893Z,19.01
2022-11-03T22:40:08.206Z,19.01
2022-11-03T22:42:54.464Z,18.98
2022-11-03T22:45:40.593Z,18.97
2022-11-03T22:48:09.609Z,18.95
2022-11-03T22:50:38.060Z,18.96
2022-11-03T22:53:21.955Z,18.96
2022-11-03T22:55:52.063Z,18.95
2022-11-03T22:58:20.548Z,18.96
2022-11-03T23:00:49.887Z,18.97
2022-11-03T23:03:18.434Z,18.97
2022-11-03T23:05:47.109Z,18.99
2022-11-03T23:08:15.947Z,19.00
2022-11-03T23:10:44.902Z,19.00
2022-11-03T23:13:15.291Z,19.01
2022-11-03T23:15:44.035Z,19.01
2022-11-03T23:18:30.204Z,19.00
2022-11-03T23:21:07.695Z,18.95
2022-11-03T23:23:54.789Z,18.93
2022-11-03T23:26:26.023Z,18.90
2022-11-03T23:28:56.359Z,18.90
2022-11-03T23:31:24.935Z,18.85
2022-11-03T23:33:53.615Z,18.83
2022-11-03T23:36:22.260Z,18.81
2022-11-03T23:38:51.053Z,18.81
2022-11-03T23:41:20.937Z,18.79
2022-11-03T23:43:49.519Z,18.76
2022-11-03T23:46:42.067Z,18.72
2022-11-03T23:49:11.327Z,18.68
2022-11-03T23:51:41.914Z,18.66
2022-11-03T23:54:12.825Z,18.63
2022-11-03T23:57:03.700Z,18.60
2022-11-03T23:59:35.060Z,18.60
